Time;durP1;ratioP1;P1;durP2;ratioP2;P2;SDS_P1;SDS_P2;PMS_P1;PMS_P2;Temp;Humidity;BMP_temperature;BMP_pressure;BME280_temperature;BME280_humidity;BME280_pressure;Samples;Min_cycle;Max_cycle;Signal;HPM_P1;HPM_P2
2023/07/01 04:43:04;;;;;;;9.32;8.43;;;;;;;;;;6126984;22;20139;31
2023/07/01 04:45:33;;;;;;;8.98;8.10;;;;;;;;;;6098332;23;20077;-83
2023/07/01 04:47:59;;;;;;;10.35;9.27;;;;;;;;;;6099197;23;20011;-83
2023/07/01 04:50:25;;;;;;;9.82;8.93;;;;;;;;;;6073362;23;20340;-80
2023/07/01 04:52:50;;;;;;;9.13;8.32;;;;;;;;;;6065106;23;20085;-80
2023/07/01 04:55:16;;;;;;;8.95;8.15;;;;;;;;;;6068811;23;20415;-82
2023/07/01 04:57:41;;;;;;;10.30;9.30;;;;;;;;;;6070185;23;20411;-80
2023/07/01 05:00:10;;;;;;;9.80;8.90;;;;;;;;;;6070413;23;20003;-82
2023/07/01 05:02:35;;;;;;;9.15;8.35;;;;;;;;;;6070522;23;20335;-80
2023/07/01 05:05:01;;;;;;;9.70;8.73;;;;;;;;;;6068691;23;20098;-81
2023/07/01 05:07:26;;;;;;;10.50;9.55;;;;;;;;;;6070547;23;19998;-82
2023/07/01 05:09:52;;;;;;;9.32;8.52;;;;;;;;;;6044531;23;20334;-79
2023/07/01 05:12:17;;;;;;;10.07;9.07;;;;;;;;;;6070064;23;20010;-80
2023/07/01 05:14:43;;;;;;;9.43;8.63;;;;;;;;;;6068648;23;20006;-79
2023/07/01 05:17:09;;;;;;;9.95;8.95;;;;;;;;;;6070194;23;20013;-79
2023/07/01 05:19:35;;;;;;;9.57;8.70;;;;;;;;;;6070394;23;20010;-83
2023/07/01 05:22:00;;;;;;;10.00;9.02;;;;;;;;;;6071180;23;20026;-93
2023/07/01 05:24:26;;;;;;;9.00;8.20;;;;;;;;;;6070853;23;20006;-89
2023/07/01 05:26:52;;;;;;;10.07;9.25;;;;;;;;;;6070637;23;20415;-89
2023/07/01 05:29:20;;;;;;;10.52;9.60;;;;;;;;;;6069933;23;20523;-86
2023/07/01 05:31:48;;;;;;;10.67;9.47;;;;;;;;;;6070243;23;20030;-81
2023/07/01 05:34:14;;;;;;;10.65;9.23;;;;;;;;;;6069717;23;20411;-82
2023/07/01 05:36:39;;;;;;;17.08;14.43;;;;;;;;;;6070134;23;20017;-81
2023/07/01 05:39:05;;;;;;;16.20;14.60;;;;;;;;;;6069927;23;20074;-81
2023/07/01 05:41:31;;;;;;;13.93;12.52;;;;;;;;;;6044504;23;20453;-81
2023/07/01 05:43:57;;;;;;;12.13;10.93;;;;;;;;;;6079869;23;20438;-82
2023/07/01 05:46:22;;;;;;;11.45;10.45;;;;;;;;;;6097177;23;20085;-82
2023/07/01 05:48:48;;;;;;;10.95;9.95;;;;;;;;;;6098863;23;20026;-81
2023/07/01 05:51:13;;;;;;;11.25;10.15;;;;;;;;;;6073002;23;20006;-81
2023/07/01 05:53:39;;;;;;;10.80;9.80;;;;;;;;;;6098458;23;20402;-82
2023/07/01 05:56:04;;;;;;;13.05;11.85;;;;;;;;;;6098695;23;20013;-82
2023/07/01 05:58:30;;;;;;;11.02;9.95;;;;;;;;;;6073142;23;20466;-82
2023/07/01 06:00:55;;;;;;;11.10;10.10;;;;;;;;;;6098686;23;20125;-82
2023/07/01 06:03:20;;;;;;;11.02;9.93;;;;;;;;;;6098552;23;20007;-82
2023/07/01 06:05:46;;;;;;;11.27;10.27;;;;;;;;;;6098394;23;20030;-82
2023/07/01 06:08:11;;;;;;;10.35;9.45;;;;;;;;;;6098500;23;20030;-84
2023/07/01 06:10:37;;;;;;;10.85;9.85;;;;;;;;;;6096610;23;20014;-85
2023/07/01 06:13:02;;;;;;;11.07;10.07;;;;;;;;;;6097122;23;20398;-85
2023/07/01 06:15:28;;;;;;;11.38;10.23;;;;;;;;;;6098314;23;20025;-86
2023/07/01 06:17:53;;;;;;;10.32;9.32;;;;;;;;;;6098639;23;20006;-86
2023/07/01 06:20:19;;;;;;;10.90;9.90;;;;;;;;;;6098534;23;20003;-82
2023/07/01 06:22:44;;;;;;;12.27;11.05;;;;;;;;;;6099651;23;20378;-82
2023/07/01 06:25:10;;;;;;;11.77;10.68;;;;;;;;;;6098705;23;20185;-80
2023/07/01 06:27:37;;;;;;;12.35;11.25;;;;;;;;;;6098888;23;19999;-80
2023/07/01 06:30:03;;;;;;;11.35;10.32;;;;;;;;;;6098150;23;20002;-80
2023/07/01 06:32:29;;;;;;;12.40;11.20;;;;;;;;;;6098258;23;20011;-80
2023/07/01 06:34:55;;;;;;;12.23;11.10;;;;;;;;;;6098396;23;20329;-80
2023/07/01 06:37:20;;;;;;;12.90;11.70;;;;;;;;;;6098392;23;20006;-83
2023/07/01 06:39:46;;;;;;;13.35;12.10;;;;;;;;;;6098457;23;19999;-81
2023/07/01 06:42:12;;;;;;;13.23;11.93;;;;;;;;;;6096654;23;20006;-82
2023/07/01 06:44:38;;;;;;;13.35;12.15;;;;;;;;;;6098451;23;20097;-81
2023/07/01 06:47:04;;;;;;;12.50;11.30;;;;;;;;;;6098325;23;20009;-81
2023/07/01 06:49:29;;;;;;;14.35;13.05;;;;;;;;;;6098104;23;20007;-84
2023/07/01 06:51:55;;;;;;;15.70;14.10;;;;;;;;;;6098039;23;20007;-83
2023/07/01 06:54:20;;;;;;;;;;;;;;;;;;6099748;23;19992;-83
2023/07/01 06:56:46;;;;;;;13.90;12.50;;;;;;;;;;6098459;23;20058;-81
2023/07/01 06:59:12;;;;;;;15.93;14.23;;;;;;;;;;6098318;23;20425;-82
2023/07/01 07:01:37;;;;;;;15.02;13.55;;;;;;;;;;6099099;23;20006;-83
2023/07/01 07:04:03;;;;;;;15.95;14.35;;;;;;;;;;6096209;23;20010;-82
2023/07/01 07:06:28;;;;;;;15.45;13.95;;;;;;;;;;6097622;23;20422;-84
2023/07/01 07:08:54;;;;;;;17.77;16.08;;;;;;;;;;6097536;23;20007;-84
2023/07/01 07:11:19;;;;;;;17.70;15.98;;;;;;;;;;6097836;23;20011;-82
2023/07/01 07:13:45;;;;;;;15.38;13.98;;;;;;;;;;6097612;23;20002;-83
2023/07/01 07:16:10;;;;;;;17.08;15.35;;;;;;;;;;6097964;23;20006;-83
2023/07/01 07:18:35;;;;;;;15.07;13.68;;;;;;;;;;6098236;23;20013;-83
2023/07/01 07:21:01;;;;;;;13.35;12.05;;;;;;;;;;6097737;23;20077;-83
2023/07/01 07:23:26;;;;;;;18.05;16.23;;;;;;;;;;6071996;23;20423;-85
2023/07/01 07:25:52;;;;;;;15.48;14.07;;;;;;;;;;6098023;23;20013;-81
2023/07/01 07:28:17;;;;;;;20.30;18.20;;;;;;;;;;6097982;23;20012;-85
2023/07/01 07:30:43;;;;;;;16.52;14.82;;;;;;;;;;6098015;23;20041;-85
2023/07/01 07:33:08;;;;;;;18.13;16.42;;;;;;;;;;6097634;23;20009;-85
2023/07/01 07:35:33;;;;;;;12.90;11.70;;;;;;;;;;6097738;23;20448;-85
2023/07/01 07:37:59;;;;;;;15.93;14.32;;;;;;;;;;6098053;23;20013;-86
2023/07/01 07:40:25;;;;;;;18.73;16.83;;;;;;;;;;6097995;23;20085;-85
2023/07/01 07:42:53;;;;;;;18.25;16.55;;;;;;;;;;6097797;23;20419;-85
2023/07/01 07:45:22;;;;;;;19.00;17.10;;;;;;;;;;6097918;23;20014;-83
2023/07/01 07:47:48;;;;;;;14.32;12.93;;;;;;;;;;6097600;23;20002;-83
2023/07/01 07:50:14;;;;;;;13.77;12.57;;;;;;;;;;6097535;23;20006;-84
2023/07/01 07:52:39;;;;;;;15.10;13.70;;;;;;;;;;6097659;23;20498;-86
2023/07/01 07:55:05;;;;;;;13.10;11.80;;;;;;;;;;6097998;23;20025;-95
2023/07/01 11:04:54;;;;;;;5.93;5.40;;;;;;;;;;6178756;22;20103;-85
2023/07/01 11:07:27;;;;;;;6.35;5.85;;;;;;;;;;6158131;23;20495;-87
2023/07/01 11:09:54;;;;;;;7.25;6.57;;;;;;;;;;6131785;23;20091;-88
2023/07/01 11:12:20;;;;;;;6.80;6.18;;;;;;;;;;6131230;23;20002;-91
2023/07/01 11:14:46;;;;;;;8.40;6.60;;;;;;;;;;6157574;23;20444;-88
2023/07/01 11:17:17;;;;;;;8.32;7.47;;;;;;;;;;6159962;23;20006;-88
2023/07/01 11:20:20;;;;;;;7.90;6.95;;;;;;;;;;6138484;22;20009;-89
2023/07/01 11:22:46;;;;;;;7.93;7.13;;;;;;;;;;6138463;23;20017;-93
2023/07/01 11:25:12;;;;;;;7.60;6.90;;;;;;;;;;6167858;23;20376;-91
2023/07/01 11:27:43;;;;;;;6.63;5.75;;;;;;;;;;6135904;23;20008;-96
2023/07/01 11:30:09;;;;;;;6.70;6.10;;;;;;;;;;6140869;23;20029;-92
2023/07/01 11:32:34;;;;;;;7.22;6.30;;;;;;;;;;6132792;23;20001;-90
2023/07/01 11:35:00;;;;;;;6.55;5.85;;;;;;;;;;6158690;23;20061;-91
2023/07/01 11:37:28;;;;;;;7.07;6.38;;;;;;;;;;6157793;23;20012;-91
2023/07/01 11:39:53;;;;;;;7.22;6.53;;;;;;;;;;6158700;23;20006;-92
2023/07/01 11:42:19;;;;;;;7.03;6.05;;;;;;;;;;6159836;23;20006;-94
2023/07/01 11:44:44;;;;;;;7.05;5.78;;;;;;;;;;6160522;23;20011;-91
2023/07/01 11:47:14;;;;;;;5.93;5.32;;;;;;;;;;6137239;23;20014;-91
2023/07/01 11:49:40;;;;;;;7.07;6.38;;;;;;;;;;6144918;23;20028;-92
2023/07/01 11:52:06;;;;;;;6.22;5.63;;;;;;;;;;6147458;23;20005;-93
2023/07/01 11:54:47;;;;;;;6.47;5.88;;;;;;;;;;6173718;23;20091;-91
2023/07/01 11:57:13;;;;;;;6.57;5.97;;;;;;;;;;6149765;23;20440;-88
2023/07/01 11:59:39;;;;;;;6.57;5.85;;;;;;;;;;6172328;23;20006;-88
2023/07/01 12:02:05;;;;;;;6.63;6.03;;;;;;;;;;6149119;23;20008;-89
2023/07/01 12:04:33;;;;;;;6.82;6.13;;;;;;;;;;6135198;23;20005;-91
2023/07/01 12:07:06;;;;;;;6.45;5.95;;;;;;;;;;6133039;23;20009;-89
2023/07/01 12:09:32;;;;;;;7.00;6.30;;;;;;;;;;6158553;23;20009;-90
2023/07/01 12:11:58;;;;;;;7.80;6.20;;;;;;;;;;6132410;23;20465;-90
2023/07/01 12:14:24;;;;;;;7.32;6.63;;;;;;;;;;6131626;23;20055;-90
2023/07/01 12:16:51;;;;;;;6.72;6.03;;;;;;;;;;6132132;23;20015;-89
2023/07/01 12:19:21;;;;;;;7.00;6.30;;;;;;;;;;6131231;23;19997;-90
2023/07/01 12:21:52;;;;;;;8.13;6.53;;;;;;;;;;6130966;23;20013;-89
2023/07/01 12:24:19;;;;;;;6.63;6.03;;;;;;;;;;6131119;23;20001;-91
2023/07/01 12:26:54;;;;;;;6.80;6.20;;;;;;;;;;6130784;23;20009;-91
2023/07/01 12:29:21;;;;;;;7.00;6.40;;;;;;;;;;6131098;23;20037;-91
2023/07/01 12:31:47;;;;;;;7.25;6.55;;;;;;;;;;6131125;23;20102;-91
2023/07/01 12:34:13;;;;;;;7.82;6.30;;;;;;;;;;6131378;23;20033;-91
2023/07/01 12:36:39;;;;;;;6.53;5.93;;;;;;;;;;6131230;23;20005;-90
2023/07/01 12:39:07;;;;;;;7.75;6.65;;;;;;;;;;6157205;23;20025;-89
2023/07/01 12:41:36;;;;;;;6.82;6.22;;;;;;;;;;6131331;23;20001;-92
2023/07/01 12:44:08;;;;;;;6.70;6.05;;;;;;;;;;6130051;23;20040;-91
2023/07/01 12:46:34;;;;;;;7.20;6.53;;;;;;;;;;6129030;23;20005;-91
2023/07/01 12:49:03;;;;;;;7.45;6.75;;;;;;;;;;6129646;23;20333;-89
2023/07/01 12:51:32;;;;;;;6.50;5.90;;;;;;;;;;6131530;23;20464;-90
2023/07/01 12:53:58;;;;;;;7.25;6.43;;;;;;;;;;6132101;23;20016;-89
2023/07/01 12:56:25;;;;;;;6.78;6.00;;;;;;;;;;6158601;23;20001;-90
2023/07/01 12:58:51;;;;;;;6.50;5.93;;;;;;;;;;6133418;23;20009;-92
2023/07/01 13:01:16;;;;;;;7.07;6.43;;;;;;;;;;6132857;23;20487;-89
2023/07/01 13:03:42;;;;;;;6.57;5.97;;;;;;;;;;6132927;23;20009;-90
2023/07/01 13:06:29;;;;;;;6.90;6.30;;;;;;;;;;6132580;23;20060;-91
2023/07/01 13:09:00;;;;;;;6.35;5.78;;;;;;;;;;6132474;23;20005;-90
2023/07/01 13:11:28;;;;;;;6.70;6.10;;;;;;;;;;6158991;23;20009;-89
2023/07/01 13:13:54;;;;;;;5.90;5.40;;;;;;;;;;6158731;23;20008;-91
2023/07/01 13:16:28;;;;;;;7.90;7.20;;;;;;;;;;6158967;23;20075;-90
2023/07/01 13:18:55;;;;;;;13.77;12.48;;;;;;;;;;6158393;23;20002;-88
2023/07/01 13:21:20;;;;;;;13.77;12.48;;;;;;;;;;6132051;23;20049;-90
2023/07/01 13:23:46;;;;;;;13.75;12.30;;;;;;;;;;6132345;23;20452;-91
2023/07/01 13:26:15;;;;;;;12.75;11.45;;;;;;;;;;6132470;23;20005;-87
2023/07/01 13:28:40;;;;;;;13.48;12.10;;;;;;;;;;6158034;23;20408;-87
2023/07/01 13:31:05;;;;;;;15.05;13.60;;;;;;;;;;6158218;23;20005;-87
2023/07/01 13:33:31;;;;;;;11.55;10.43;;;;;;;;;;6131964;23;20573;-88
2023/07/01 13:35:59;;;;;;;15.48;13.88;;;;;;;;;;6131991;23;20488;-88
2023/07/01 13:38:25;;;;;;;12.02;10.75;;;;;;;;;;6156393;23;20012;-89
2023/07/01 13:40:51;;;;;;;11.25;10.15;;;;;;;;;;6133174;23;20037;-89
2023/07/01 13:43:22;;;;;;;8.80;8.00;;;;;;;;;;6159529;23;20005;-89
2023/07/01 13:45:47;;;;;;;10.32;9.23;;;;;;;;;;6132019;23;20335;-90
2023/07/01 13:48:32;;;;;;;8.57;7.78;;;;;;;;;;6131703;23;20006;-85
2023/07/01 13:50:57;;;;;;;7.78;6.97;;;;;;;;;;6157869;23;20013;-86
2023/07/01 13:53:23;;;;;;;11.38;10.38;;;;;;;;;;6158031;23;20496;-87
2023/07/01 13:55:49;;;;;;;8.90;7.78;;;;;;;;;;6158266;23;20009;-88
2023/07/01 13:58:15;;;;;;;8.15;7.35;;;;;;;;;;6131944;23;20009;-88
2023/07/01 14:00:43;;;;;;;7.80;7.10;;;;;;;;;;6158493;23;20009;-90
2023/07/01 14:03:21;;;;;;;7.20;6.47;;;;;;;;;;6131621;23;20005;-89
2023/07/01 14:05:48;;;;;;;7.78;6.72;;;;;;;;;;6158005;23;20009;-87
2023/07/01 14:08:15;;;;;;;6.80;6.28;;;;;;;;;;6158034;23;20016;-87
2023/07/01 14:10:41;;;;;;;6.38;5.78;;;;;;;;;;6157855;23;20009;-89
2023/07/01 14:13:11;;;;;;;7.00;6.30;;;;;;;;;;6158277;23;20005;-91
2023/07/01 14:15:41;;;;;;;6.75;5.78;;;;;;;;;;6132159;23;20340;-89
2023/07/01 14:18:27;;;;;;;7.50;6.80;;;;;;;;;;6132243;23;20088;-89
2023/07/01 14:21:06;;;;;;;6.93;6.32;;;;;;;;;;6131416;23;20016;-89
2023/07/01 14:23:34;;;;;;;6.93;6.22;;;;;;;;;;6158182;23;20010;-89
2023/07/01 14:26:02;;;;;;;7.27;6.53;;;;;;;;;;6158486;23;20001;-88
2023/07/01 14:28:28;;;;;;;7.75;7.05;;;;;;;;;;6131954;23;20006;-90
2023/07/01 14:30:59;;;;;;;6.57;5.97;;;;;;;;;;6131928;23;20013;-90
2023/07/01 14:33:42;;;;;;;6.70;6.10;;;;;;;;;;6132131;23;20013;-90
2023/07/01 14:36:10;;;;;;;6.78;6.25;;;;;;;;;;6158227;23;19997;-90
2023/07/01 14:38:44;;;;;;;7.38;6.78;;;;;;;;;;6131911;23;20006;-88
2023/07/01 14:41:42;;;;;;;8.38;6.72;;;;;;;;;;6131848;23;20421;-89
2023/07/01 14:44:20;;;;;;;7.10;6.50;;;;;;;;;;6131961;23;20445;-89
2023/07/01 14:46:45;;;;;;;7.53;6.80;;;;;;;;;;6158028;23;20005;-89
2023/07/01 14:49:11;;;;;;;6.05;5.55;;;;;;;;;;6157614;23;20020;-89
2023/07/01 14:51:37;;;;;;;8.02;7.35;;;;;;;;;;6131808;23;20015;-89
2023/07/01 14:54:03;;;;;;;7.55;6.88;;;;;;;;;;6132057;23;20040;-89
2023/07/01 14:56:29;;;;;;;7.68;6.97;;;;;;;;;;6157780;23;20004;-89
2023/07/01 14:58:55;;;;;;;7.03;6.38;;;;;;;;;;6157785;23;20076;-88
2023/07/01 15:01:22;;;;;;;7.00;6.30;;;;;;;;;;6131687;23;20013;-89
2023/07/01 15:03:48;;;;;;;7.88;7.18;;;;;;;;;;6131769;23;20337;-89
2023/07/01 15:06:15;;;;;;;7.75;6.70;;;;;;;;;;6157618;23;20008;-89
2023/07/01 15:08:43;;;;;;;7.75;6.95;;;;;;;;;;6131708;23;20006;-89
2023/07/01 15:11:08;;;;;;;8.82;7.75;;;;;;;;;;6132083;23;20010;-89
2023/07/01 15:13:34;;;;;;;9.38;8.45;;;;;;;;;;6131496;23;20006;-86
2023/07/01 15:16:01;;;;;;;10.35;9.35;;;;;;;;;;6157546;23;20002;-88
2023/07/01 15:18:27;;;;;;;9.32;8.48;;;;;;;;;;6131253;23;20008;-89
2023/07/01 15:20:53;;;;;;;9.93;8.93;;;;;;;;;;6156938;23;20017;-87
2023/07/01 15:23:19;;;;;;;8.50;7.70;;;;;;;;;;6157788;23;20009;-88
2023/07/01 15:25:44;;;;;;;9.00;8.20;;;;;;;;;;6131189;23;20001;-88
2023/07/01 15:28:10;;;;;;;8.25;7.50;;;;;;;;;;6131423;23;20005;-89
2023/07/01 15:30:35;;;;;;;8.90;7.53;;;;;;;;;;6157135;23;20364;-89
2023/07/01 15:33:01;;;;;;;7.85;7.15;;;;;;;;;;6131512;23;20029;-89
2023/07/01 15:35:26;;;;;;;8.40;7.57;;;;;;;;;;6131076;23;20315;-89
2023/07/01 15:37:52;;;;;;;8.98;8.18;;;;;;;;;;6131324;23;20010;-88
2023/07/01 15:40:17;;;;;;;8.05;6.60;;;;;;;;;;6131385;23;20006;-89
2023/07/01 15:42:44;;;;;;;11.55;7.97;;;;;;;;;;6131197;23;20020;-87
2023/07/01 15:45:10;;;;;;;9.57;8.18;;;;;;;;;;6107595;23;20009;-88
2023/07/01 15:47:35;;;;;;;7.78;7.07;;;;;;;;;;6158447;23;20005;-89
2023/07/01 15:50:01;;;;;;;8.25;6.97;;;;;;;;;;6131068;23;20009;-88
2023/07/01 15:52:27;;;;;;;7.90;7.20;;;;;;;;;;6156972;23;20060;-88
2023/07/01 15:54:52;;;;;;;7.75;7.05;;;;;;;;;;6156889;23;20001;-88
2023/07/01 15:57:18;;;;;;;7.00;6.45;;;;;;;;;;6156983;23;20012;-88
2023/07/01 15:59:43;;;;;;;8.45;7.65;;;;;;;;;;6157144;23;20345;-88
2023/07/01 16:02:08;;;;;;;7.97;7.20;;;;;;;;;;6157035;23;20036;-89
2023/07/01 16:04:38;;;;;;;8.63;7.68;;;;;;;;;;6130905;23;20148;-88
2023/07/01 16:07:18;;;;;;;;;;;;;;;;;;6157238;23;20417;-88
2023/07/01 16:09:43;;;;;;;7.53;6.85;;;;;;;;;;6156812;23;19909;-89
2023/07/01 16:12:18;;;;;;;8.45;7.70;;;;;;;;;;6156855;23;20030;-88
2023/07/01 16:15:06;;;;;;;7.80;7.10;;;;;;;;;;6156974;23;20005;-88
2023/07/01 16:17:33;;;;;;;7.23;6.63;;;;;;;;;;6157209;23;20010;-88
2023/07/01 16:19:58;;;;;;;7.25;6.55;;;;;;;;;;6156578;23;20437;-88
2023/07/01 16:22:25;;;;;;;7.63;7.03;;;;;;;;;;6130727;23;20012;-89
2023/07/01 16:24:55;;;;;;;7.97;7.28;;;;;;;;;;6135646;23;20006;-88
2023/07/01 16:27:23;;;;;;;7.97;6.80;;;;;;;;;;6163374;23;20006;-88
2023/07/01 16:30:17;;;;;;;7.28;6.68;;;;;;;;;;6162323;23;20009;-89
2023/07/01 16:32:43;;;;;;;8.63;7.82;;;;;;;;;;6152986;23;20477;-86
2023/07/01 16:35:31;;;;;;;10.02;9.02;;;;;;;;;;6156688;23;20009;-88
2023/07/01 16:37:57;;;;;;;9.15;8.32;;;;;;;;;;6156536;23;20001;-88
2023/07/01 16:40:45;;;;;;;8.88;8.07;;;;;;;;;;6156542;23;20117;-87
2023/07/01 16:43:13;;;;;;;8.07;7.32;;;;;;;;;;6130658;23;20005;-86
2023/07/01 16:45:39;;;;;;;9.25;8.35;;;;;;;;;;6131650;23;20002;-87
2023/07/01 16:48:23;;;;;;;8.60;7.80;;;;;;;;;;6130497;23;20060;-86
2023/07/01 16:51:03;;;;;;;8.00;7.20;;;;;;;;;;6156936;23;20032;-86
2023/07/01 16:53:34;;;;;;;8.65;7.85;;;;;;;;;;6157393;23;20061;-89
2023/07/01 16:55:59;;;;;;;8.23;7.45;;;;;;;;;;6156802;23;20496;-84
2023/07/01 16:58:36;;;;;;;8.75;7.95;;;;;;;;;;6155820;23;19997;-84
2023/07/01 17:01:08;;;;;;;9.23;8.32;;;;;;;;;;6156154;23;20002;-83
2023/07/01 17:03:38;;;;;;;8.40;7.70;;;;;;;;;;6130273;23;20024;-85
2023/07/01 17:06:26;;;;;;;10.05;9.07;;;;;;;;;;6156109;23;20060;-84
2023/07/01 17:08:51;;;;;;;11.63;10.00;;;;;;;;;;6155816;23;20001;-84
2023/07/01 17:11:25;;;;;;;8.57;7.78;;;;;;;;;;6156078;23;20005;-87
2023/07/01 17:13:51;;;;;;;8.60;7.80;;;;;;;;;;6156439;23;20006;-84
2023/07/01 20:52:10;;;;;;;7.40;6.77;;;;;;;;;;6127191;23;20096;-85
2023/07/01 20:54:38;;;;;;;6.93;6.27;;;;;;;;;;6155407;23;20017;-84
2023/07/01 20:57:04;;;;;;;6.90;6.25;;;;;;;;;;6158051;23;20012;-85
2023/07/01 20:59:32;;;;;;;6.85;6.25;;;;;;;;;;6157613;23;20009;-93
2023/07/01 21:02:01;;;;;;;6.30;5.80;;;;;;;;;;6157058;23;20064;-85
2023/07/01 21:04:27;;;;;;;6.75;6.25;;;;;;;;;;6156504;23;20450;-85
2023/07/01 21:06:53;;;;;;;6.97;6.38;;;;;;;;;;6156040;23;20009;-92
2023/07/01 21:09:19;;;;;;;7.32;6.72;;;;;;;;;;6157233;23;20036;-86
2023/07/01 21:11:46;;;;;;;7.90;6.32;;;;;;;;;;6155587;23;20009;-84
2023/07/01 21:14:13;;;;;;;6.80;6.20;;;;;;;;;;6159375;23;20006;-85
2023/07/01 21:16:40;;;;;;;6.93;6.28;;;;;;;;;;6158769;23;20041;-85
2023/07/01 21:19:06;;;;;;;6.40;5.90;;;;;;;;;;6158655;23;19997;-85
2023/07/01 21:21:32;;;;;;;6.75;6.15;;;;;;;;;;6158426;23;20039;-85
2023/07/01 21:23:58;;;;;;;6.45;5.90;;;;;;;;;;6158773;23;20009;-92
2023/07/01 21:26:26;;;;;;;7.10;6.40;;;;;;;;;;6159269;23;20006;-88
2023/07/01 21:28:54;;;;;;;7.38;6.78;;;;;;;;;;6156863;23;20005;-88
2023/07/01 21:31:22;;;;;;;7.50;6.80;;;;;;;;;;6157442;23;20009;-89
2023/07/01 21:33:48;;;;;;;7.45;6.80;;;;;;;;;;6158678;23;20084;-84
2023/07/01 21:36:15;;;;;;;6.40;5.80;;;;;;;;;;6158379;23;19997;-84
2023/07/01 21:38:42;;;;;;;6.63;6.03;;;;;;;;;;6158134;23;20025;-83
2023/07/01 21:41:08;;;;;;;6.00;5.50;;;;;;;;;;6158049;23;20511;-84
2023/07/01 21:43:36;;;;;;;7.10;6.50;;;;;;;;;;6156559;23;20084;-81
2023/07/01 21:46:03;;;;;;;6.97;6.38;;;;;;;;;;6158183;23;20005;-81
2023/07/01 21:48:31;;;;;;;6.55;6.05;;;;;;;;;;6158423;23;20001;-82
2023/07/01 21:51:12;;;;;;;7.28;6.57;;;;;;;;;;6158165;23;20009;-85
2023/07/01 21:53:37;;;;;;;6.68;6.15;;;;;;;;;;6157926;23;20037;-83
